Latest Coastal Weather Observations for Lancelin (Defence)

IDW60701

Issued at 1:33 am WST Thursday 3 September 2026 (issued every 10 minutes, with the page automatically refreshed every 10 minutes)

About coastal observations | Map of coastal stations | Coastal observations for WA | Marine services | Other Formats
Station Details ID: 009280 Name: LANCELIN (DEFENCE) Lat: -30.84 Lon: 115.23 Height: 3.41 m
Data from the previous 72 hours. | See also: Recent months at Lancelin (Defence)
Date/Time
WST
Wind Sea
Height
m
Swell Vis
km
Cloud Weather Temp
°C
Press
MSL
hPa
Rain since
9am
mm
Dir  Spd
kts
Gust
kts
Height
m
Period
s
Dir
03/01:30am W 6 11 - - - - - - - 16.6 1020.7 0.0
03/01:00am W 6 8 - - - - - - - 16.6 1020.9 0.0
03/12:30am W 5 8 - - - - - - - 16.7 1021.0 0.0
03/12:00am W 4 5 - - - - - - - 16.9 1021.4 0.0
 
Date/Time
WST
Wind Sea
Height
m
Swell Vis
km
Cloud Weather Temp
°C
Press
MSL
hPa
Rain since
9am
mm
Dir  Spd
kts
Gust
kts
Height
m
Period
s
Dir
02/11:30pm WNW 4 6 - - - - - - - 16.9 1021.7 0.0
02/11:00pm W 5 7 - - - - - - - 16.9 1022.0 0.0
02/10:30pm W 4 7 - - - - - - - 16.8 1022.3 0.0
02/10:00pm W 4 6 - - - - - - - 16.7 1022.4 0.0
02/09:30pm W 4 6 - - - - - - - 16.6 1022.6 0.0
02/09:00pm W 4 7 - - - - - - - 16.6 1022.6 0.0
02/08:30pm W 3 5 - - - - - - - 16.6 1022.7 0.0
02/08:00pm WSW 4 6 - - - - - - - 16.7 1022.7 0.0
02/07:30pm WSW 5 8 - - - - - - - 16.7 1022.6 0.0
02/07:00pm WSW 6 8 - - - - - - - 16.7 1022.3 0.0
02/06:30pm WSW 4 6 - - - - - - - 16.7 1022.2 0.0
02/06:00pm SW 5 7 - - - - - - - 16.8 1021.9 0.0
02/05:30pm WSW 5 8 - - - - - - - 17.0 1021.8 0.0
02/05:00pm SW 5 7 - - - - - - - 17.2 1021.7 0.0
02/04:30pm SW 5 7 - - - - - - - 17.5 1021.6 0.0
02/04:00pm SW 5 8 - - - - - - - 17.9 1021.5 0.0
02/03:30pm SW 5 8 - - - - - - - 17.9 1021.6 0.0
02/03:00pm WSW 5 7 - - - - - - - 18.1 1021.7 0.0
02/02:30pm WSW 5 7 - - - - - - - 18.1 1021.8 0.0
02/02:00pm SW 7 9 - - - - - - - 18.0 1022.1 0.0
02/01:30pm WSW 4 6 - - - - - - - 16.8 1022.6 0.0
02/01:00pm SSW 8 12 - - - - - - - 16.6 1023.0 0.0
02/12:30pm SW 10 14 - - - - - - - 16.3 1023.5 0.0
02/12:00pm SW 3 5 - - - - - - - 17.5 1023.5 0.0
02/11:30am S 6 9 - - - - - - - 16.5 1023.7 0.0
02/11:00am S 4 6 - - - - - - - 16.9 1023.7 0.0
02/10:30am S 6 9 - - - - - - - 16.4 1023.8 0.0
02/10:00am SSW 5 9 - - - - - - - 16.9 1023.7 0.0
02/09:30am SSW 5 7 - - - - - - - 16.8 1023.8 0.0
02/09:00am SW 5 8 - - - - - - - 16.3 1023.7 0.2
02/08:30am SW 4 7 - - - - - - - 16.2 1023.5 0.2
02/08:00am WSW 4 6 - - - - - - - 15.9 1023.4 0.2
02/07:30am WSW 6 8 - - - - - - - 15.6 1023.2 0.2
02/07:00am WSW 7 11 - - - - - - - 15.6 1023.1 0.2
02/06:30am SW 9 13 - - - - - - - 15.7 1022.8 0.2
02/06:00am SW 8 13 - - - - - - - 15.5 1022.5 0.2
02/05:30am SW 8 12 - - - - - - - 15.6 1022.3 0.2
02/05:00am SW 5 7 - - - - - - - 15.3 1022.1 0.2
02/04:30am WSW 4 7 - - - - - - - 14.9 1022.3 0.2
02/04:00am WSW 7 11 - - - - - - - 15.0 1022.5 0.2
02/03:30am WSW 10 15 - - - - - - - 15.4 1022.5 0.2
02/03:00am WNW 5 12 - - - - - - - 14.2 1022.5 0.2
02/02:30am NNE 2 3 - - - - - - - 11.9 1022.6 0.2
02/02:00am NE 3 5 - - - - - - - 11.8 1022.8 0.2
02/01:30am NE 5 6 - - - - - - - 11.9 1022.8 0.2
02/01:00am NE 6 7 - - - - - - - 11.7 1022.9 0.2
02/12:30am NE 5 6 - - - - - - - 12.0 1023.1 0.2
02/12:00am ENE 6 7 - - - - - - - 11.4 1023.3 0.2
 
Date/Time
WST
Wind Sea
Height
m
Swell Vis
km
Cloud Weather Temp
°C
Press
MSL
hPa
Rain since
9am
mm
Dir  Spd
kts
Gust
kts
Height
m
Period
s
Dir
01/11:30pm NE 6 8 - - - - - - - 10.6 1023.4 0.2
01/11:00pm ENE 4 4 - - - - - - - 10.3 1023.6 0.2
01/10:30pm ESE 4 5 - - - - - - - 10.8 1023.8 0.2
01/10:00pm E 5 7 - - - - - - - 11.0 1024.0 0.2
01/09:30pm E 3 4 - - - - - - - 10.3 1024.1 0.2
01/09:00pm E 4 5 - - - - - - - 10.3 1024.2 0.2
01/08:30pm E 4 5 - - - - - - - 10.9 1024.1 0.2
01/08:00pm E 3 4 - - - - - - - 11.5 1023.9 0.2
01/07:30pm E 4 5 - - - - - - - 12.0 1023.8 0.2
01/07:00pm SE 4 7 - - - - - - - 13.8 1023.7 0.2
01/06:30pm S 5 9 - - - - - - - 15.4 1023.5 0.2
01/06:00pm S 7 11 - - - - - - - 15.9 1023.3 0.2
01/05:30pm S 7 10 - - - - - - - 16.5 1023.2 0.2
01/05:00pm SSE 6 8 - - - - - - - 17.1 1023.3 0.2
01/04:30pm S 8 10 - - - - - - - 17.4 1023.2 0.2
01/04:00pm S 7 10 - - - - - - - 17.9 1023.1 0.2
01/03:30pm S 9 12 - - - - - - - 18.0 1023.0 0.2
01/03:00pm S 9 12 - - - - - - - 17.9 1023.1 0.2
01/02:30pm S 8 11 - - - - - - - 18.4 1023.1 0.2
01/02:00pm S 7 9 - - - - - - - 18.1 1023.4 0.2
01/01:30pm S 8 10 - - - - - - - 18.2 1023.6 0.2
01/01:00pm SSW 6 8 - - - - - - - 17.7 1023.9 0.2
01/12:30pm S 6 8 - - - - - - - 17.6 1024.2 0.2
01/12:00pm S 6 8 - - - - - - - 17.3 1024.4 0.0
01/11:30am S 6 7 - - - - - - - 17.3 1024.7 0.0
01/11:00am SE 7 12 - - - - - - - 17.5 1024.7 0.0
01/10:30am ESE 8 11 - - - - - - - 16.8 1024.7 0.0
01/10:00am E 7 11 - - - - - - - 16.1 1024.8 0.0
01/09:30am ESE 8 13 - - - - - - - 15.5 1025.0 0.0
01/09:00am ESE 8 12 - - - - - - - 14.8 1025.0 1.8
01/08:30am ESE 6 9 - - - - - - - 14.2 1025.0 1.8
01/08:00am ESE 6 10 - - - - - - - 14.1 1024.6 1.8
01/07:30am ESE 3 5 - - - - - - - 12.6 1024.3 1.8
01/07:00am ESE 4 6 - - - - - - - 10.7 1024.0 1.8
01/06:30am E 4 6 - - - - - - - 10.9 1023.8 1.8
01/06:00am ESE 4 5 - - - - - - - 10.9 1023.6 1.8
01/05:30am SE 5 6 - - - - - - - 11.7 1023.2 1.8
01/05:00am ESE 6 9 - - - - - - - 12.4 1023.1 1.8
01/04:30am ESE 5 7 - - - - - - - 12.4 1022.8 1.8
01/04:00am ESE 5 8 - - - - - - - 12.7 1022.7 1.8
01/03:30am SE 5 7 - - - - - - - 12.9 1022.6 1.8
01/03:00am SE 7 11 - - - - - - - 13.1 1022.6 1.8
01/02:30am SE 9 15 - - - - - - - 13.4 1022.7 1.8
01/02:00am SE 12 21 - - - - - - - 13.8 1022.6 1.8
01/01:30am SSE 18 27 - - - - - - - 14.3 1022.6 1.8
01/01:00am S 14 20 - - - - - - - 15.7 1022.4 1.6
01/12:30am S 11 15 - - - - - - - 16.3 1022.3 1.4
01/12:00am S 17 23 - - - - - - Recent precip. 15.9 1022.4 1.4
 
Date/Time
WST
Wind Sea
Height
m
Swell Vis
km
Cloud Weather Temp
°C
Press
MSL
hPa
Rain since
9am
mm
Dir  Spd
kts
Gust
kts
Height
m
Period
s
Dir
31/11:30pm S 14 20 - - - - - - - 16.2 1022.2 1.4
31/11:00pm SSW 9 13 - - - - - - - 16.6 1022.5 1.0
31/10:30pm SSW 14 17 - - - - - - - 17.0 1022.4 0.4
31/10:00pm SW 11 15 - - - - - - - 18.1 1022.2 0.4
31/09:30pm WSW 7 10 - - - - - - - 18.3 1022.1 0.4
31/09:00pm WSW 7 11 - - - - - - - 18.5 1022.2 0.4
31/08:30pm WSW 8 13 - - - - - - - 18.4 1022.1 0.4
31/08:00pm WSW 10 14 - - - - - - - 18.4 1021.9 0.4
31/07:30pm W 10 13 - - - - - - - 18.5 1021.6 0.4
31/07:00pm W 9 12 - - - - - - - 18.6 1021.2 0.4
31/06:30pm W 8 12 - - - - - - - 19.0 1021.0 0.4
31/06:00pm WSW 7 11 - - - - - - - 18.6 1020.6 0.4
31/05:30pm WSW 8 12 - - - - - - - 18.8 1020.5 0.4
31/05:00pm W 10 15 - - - - - - - 18.8 1020.2 0.4
31/04:30pm W 11 15 - - - - - - - 20.2 1020.0 0.4
31/04:00pm WNW 7 10 - - - - - - - 20.9 1020.0 0.4
31/03:30pm WNW 7 10 - - - - - - - 21.4 1020.0 0.4
31/03:00pm W 6 9 - - - - - - - 21.2 1019.9 0.2
31/02:30pm WNW 6 8 - - - - - - - 21.3 1019.7 0.2
31/02:00pm WNW 6 7 - - - - - - - 20.3 1019.7 0.2
31/01:30pm WNW 4 7 - - - - - - - 19.8 1019.7 0.2
31/01:00pm NNW 7 10 - - - - - - - 18.6 1019.8 0.2
31/12:30pm WNW 6 9 - - - - - - - 18.7 1020.0 0.2
31/12:00pm WNW 6 7 - - - - - - Recent precip. 18.4 1020.0 0.2
31/11:30am NW 9 12 - - - - - - - 20.3 1020.0 0.0
31/11:00am NNW 8 13 - - - - - - - 21.4 1019.9 0.0
31/10:30am NNW 7 9 - - - - - - - 21.2 1019.9 0.0
31/10:00am WNW 6 8 - - - - - - - 20.6 1020.0 0.0
31/09:30am WNW 5 6 - - - - - - - 20.2 1020.0 0.0
31/09:00am NNW 4 5 - - - - - - - 19.5 1019.9 0.0
31/08:30am N 3 4 - - - - - - - 18.3 1019.8 0.0
31/08:00am CALM 0 0 - - - - - - - 16.5 1019.8 0.0
31/07:30am ENE 1 1 - - - - - - - 11.9 1019.6 0.0
31/07:00am ENE 1 2 - - - - - - - 8.2 1019.1 0.0
31/06:30am CALM 0 0 - - - - - - - 8.8 1018.8 0.0
31/06:00am ENE 1 2 - - - - - - - 9.0 1018.8 0.0
31/05:30am ENE 1 2 - - - - - - - 9.5 1018.4 0.0
31/05:00am CALM 0 0 - - - - - - - 10.8 1018.4 0.0
31/04:30am ENE 1 2 - - - - - - - 13.0 1018.2 0.0
31/04:00am SW 2 3 - - - - - - - 14.9 1018.4 0.0
31/03:30am SW 4 5 - - - - - - - 17.0 1018.5 0.0
31/03:00am SW 5 6 - - - - - - - 16.9 1018.7 0.0
31/02:30am SW 4 7 - - - - - - - 16.5 1018.7 0.0
31/02:18am SW 4 6 - - - - - - - 15.1 1018.7 0.0
31/02:00am CALM 0 1 - - - - - - - 10.1 1018.9 0.0

Other formats

Comma delimited format used in spreadsheet applications
http://www.bom.gov.au/fwo/IDW60701/IDW60701.95609.axf

JavaScript Object Notation format (JSON) in row-major order
http://www.bom.gov.au/fwo/IDW60701/IDW60701.95609.json

Data quality

Most of these data are generated automatically and are frequently updated. Quality checks on data are not normally performed. It is possible for incorrect values to appear. Refer to information at About Latest Weather Observations and please check the disclaimer before using these data.